Time;durP1;ratioP1;P1;durP2;ratioP2;P2;SDS_P1;SDS_P2;PMS_P1;PMS_P2;Temp;Humidity;BMP_temperature;BMP_pressure;BME280_temperature;BME280_humidity;BME280_pressure;Samples;Min_cycle;Max_cycle;Signal;HPM_P1;HPM_P2
2022/07/13 00:00:15;;;;;;;1999.90;999.90;;;19.00;99.90;;;;;;5048245;28;20459;-66
2022/07/13 00:02:41;;;;;;;1999.90;999.90;;;18.80;99.90;;;;;;5048565;28;20947;-66
2022/07/13 00:05:09;;;;;;;1999.90;999.90;;;18.80;99.90;;;;;;5045425;28;20523;-66
2022/07/13 00:07:36;;;;;;;1999.90;999.90;;;18.80;99.90;;;;;;5047748;28;20459;-66
2022/07/13 00:10:04;;;;;;;1999.90;999.90;;;18.70;99.90;;;;;;5051286;28;20532;-67
2022/07/13 00:12:31;;;;;;;1999.90;999.90;;;18.70;99.90;;;;;;5045623;28;20477;-66
2022/07/13 00:14:59;;;;;;;1999.90;999.90;;;18.80;99.90;;;;;;5046715;28;20520;-66
2022/07/13 00:17:26;;;;;;;1999.90;999.90;;;18.80;99.90;;;;;;5045949;28;20458;-66
2022/07/13 00:19:52;;;;;;;1999.90;999.90;;;18.80;99.90;;;;;;5048823;28;20462;-66
2022/07/13 00:22:19;;;;;;;1999.90;999.90;;;18.90;99.90;;;;;;5045292;28;20515;-66
2022/07/13 00:24:45;;;;;;;1999.90;999.90;;;18.90;99.90;;;;;;5046212;28;20466;-66
2022/07/13 00:27:12;;;;;;;1999.90;999.90;;;19.00;99.90;;;;;;5044205;28;21032;-66
2022/07/13 00:29:38;;;;;;;1999.90;999.90;;;19.00;99.90;;;;;;5049513;28;20516;-66
2022/07/13 00:32:07;;;;;;;1999.90;999.90;;;19.00;99.90;;;;;;5047742;28;20466;-66
2022/07/13 00:34:33;;;;;;;1999.90;999.90;;;19.00;99.90;;;;;;5043871;28;20990;-66
2022/07/13 00:37:00;;;;;;;1999.90;999.90;;;18.70;99.90;;;;;;5046714;28;20484;-66
2022/07/13 00:39:26;;;;;;;1999.90;999.90;;;18.50;99.90;;;;;;5045964;28;20957;-66
2022/07/13 00:41:53;;;;;;;1999.90;999.90;;;18.30;99.90;;;;;;5049440;28;20462;-66
2022/07/13 00:44:20;;;;;;;1999.90;999.90;;;18.30;99.90;;;;;;5049278;28;20450;-66
2022/07/13 00:46:52;;;;;;;1999.90;999.90;;;18.50;99.90;;;;;;5044934;28;20516;-67
2022/07/13 00:49:21;;;;;;;1999.90;999.90;;;18.60;99.90;;;;;;5044392;28;20484;-67
2022/07/13 00:51:48;;;;;;;1999.90;999.90;;;18.70;99.90;;;;;;5049439;28;20462;-66
2022/07/13 00:54:17;;;;;;;1999.90;999.90;;;18.70;99.90;;;;;;5046947;28;20850;-66
2022/07/13 00:56:43;;;;;;;1999.90;999.90;;;18.80;99.90;;;;;;5046936;28;20537;-66
2022/07/13 00:59:10;;;;;;;1999.90;999.90;;;18.90;99.90;;;;;;5046402;28;20447;-66
2022/07/13 01:01:37;;;;;;;1999.90;999.90;;;18.90;99.90;;;;;;5046092;28;20495;-66
2022/07/13 01:04:04;;;;;;;1999.90;999.90;;;18.80;99.90;;;;;;5049267;28;20489;-67
2022/07/13 01:06:32;;;;;;;1999.90;999.90;;;18.50;99.90;;;;;;5043601;28;20902;-66
2022/07/13 01:09:00;;;;;;;1999.90;999.90;;;18.50;99.90;;;;;;5045732;28;20462;-66
2022/07/13 01:11:27;;;;;;;1999.90;999.90;;;18.70;99.90;;;;;;5043622;28;20458;-66
2022/07/13 01:13:53;;;;;;;1999.90;999.90;;;18.80;99.90;;;;;;5043701;28;20482;-65
2022/07/13 01:16:20;;;;;;;1999.90;999.90;;;18.80;99.90;;;;;;5046687;28;20482;-66
2022/07/13 01:18:47;;;;;;;1999.90;999.90;;;18.90;99.90;;;;;;5044950;28;20626;-66
2022/07/13 01:21:14;;;;;;;1999.90;999.90;;;18.80;99.90;;;;;;5044552;28;20454;-66
2022/07/13 01:23:42;;;;;;;1999.90;999.90;;;18.80;99.90;;;;;;5043272;28;20515;-66
2022/07/13 01:26:11;;;;;;;1999.90;999.90;;;18.60;99.90;;;;;;5043160;28;20478;-66
2022/07/13 01:28:38;;;;;;;1999.90;999.90;;;18.50;99.90;;;;;;5043383;28;20512;-66
2022/07/13 01:31:05;;;;;;;1999.90;999.90;;;18.30;99.90;;;;;;5044019;28;21095;-66
2022/07/13 01:33:32;;;;;;;1999.90;999.90;;;18.20;99.90;;;;;;5042269;28;20904;-66
2022/07/13 01:35:58;;;;;;;1999.90;999.90;;;18.10;99.90;;;;;;5046032;28;20911;-66
2022/07/13 01:38:25;;;;;;;1999.90;999.90;;;18.30;99.90;;;;;;5044282;28;20468;-67
2022/07/13 01:40:53;;;;;;;1999.90;999.90;;;18.40;99.90;;;;;;5043895;28;20516;-66
2022/07/13 01:43:24;;;;;;;1999.90;999.90;;;18.60;99.90;;;;;;5045878;28;20458;-66
2022/07/13 01:45:51;;;;;;;1999.90;999.90;;;18.60;99.90;;;;;;5045356;28;20470;-66
2022/07/13 01:48:17;;;;;;;1999.90;999.90;;;18.50;99.90;;;;;;5044009;28;20943;-65
2022/07/13 01:50:44;;;;;;;1999.90;999.90;;;18.60;99.90;;;;;;5043110;28;20523;-66
2022/07/13 01:53:10;;;;;;;1999.90;999.90;;;18.70;99.90;;;;;;5047214;28;20570;-66
2022/07/13 01:55:37;;;;;;;1999.90;999.90;;;18.70;99.90;;;;;;5050212;28;20482;-67
2022/07/13 01:58:05;;;;;;;1999.90;999.90;;;18.70;99.90;;;;;;5046752;28;20442;-66
2022/07/13 02:00:32;;;;;;;1999.90;999.90;;;18.80;99.90;;;;;;5054862;28;20491;-66
2022/07/13 02:02:58;;;;;;;1999.90;999.90;;;18.90;99.90;;;;;;5049853;28;20492;-65
2022/07/13 02:05:26;;;;;;;1999.90;999.90;;;18.90;99.90;;;;;;5046973;28;20488;-66
2022/07/13 02:07:53;;;;;;;1999.90;999.90;;;18.90;99.90;;;;;;5047806;28;21024;-66
2022/07/13 02:10:20;;;;;;;1999.90;999.90;;;18.80;99.90;;;;;;5047091;28;20886;-67
2022/07/13 02:12:47;;;;;;;1999.90;999.90;;;18.60;99.90;;;;;;5051331;28;20461;-66
2022/07/13 02:15:15;;;;;;;1999.90;999.90;;;18.50;99.90;;;;;;5049435;28;20504;-66
2022/07/13 02:17:41;;;;;;;1999.90;999.90;;;18.60;99.90;;;;;;5047171;28;20970;-66
2022/07/13 02:20:09;;;;;;;1999.90;999.90;;;18.70;99.90;;;;;;5048583;28;20811;-66
2022/07/13 02:22:43;;;;;;;1999.90;999.90;;;18.80;99.90;;;;;;5046489;28;20454;-66
2022/07/13 02:25:10;;;;;;;1999.90;999.90;;;18.80;99.90;;;;;;5051425;28;20465;-67
2022/07/13 02:27:37;;;;;;;1999.90;999.90;;;18.90;99.90;;;;;;5047078;28;20467;-66
2022/07/13 02:30:04;;;;;;;1999.90;999.90;;;19.00;99.90;;;;;;5047525;28;21222;-66
2022/07/13 02:32:32;;;;;;;1999.90;999.90;;;19.00;99.90;;;;;;5044804;28;20462;-66
2022/07/13 02:34:59;;;;;;;1999.90;999.90;;;18.80;99.90;;;;;;5047912;28;20482;-66
2022/07/13 02:37:25;;;;;;;1999.90;999.90;;;18.70;99.90;;;;;;5050563;28;20478;-66
2022/07/13 02:39:55;;;;;;;1999.90;999.90;;;18.70;99.90;;;;;;5046115;28;20470;-67
2022/07/13 02:42:23;;;;;;;1999.90;999.90;;;18.70;99.90;;;;;;5045407;28;20508;-66
2022/07/13 02:44:50;;;;;;;1999.90;999.90;;;18.70;99.90;;;;;;5046890;28;21134;-66
2022/07/13 02:47:17;;;;;;;1999.90;999.90;;;18.80;99.90;;;;;;5047468;28;20478;-66
2022/07/13 02:49:45;;;;;;;1999.90;999.90;;;18.80;99.90;;;;;;5048101;28;20459;-66
2022/07/13 02:52:11;;;;;;;1999.90;999.90;;;18.90;99.90;;;;;;5045819;28;20454;-67
2022/07/13 02:54:38;;;;;;;1999.90;999.90;;;18.90;99.90;;;;;;5046116;28;20486;-66
2022/07/13 02:57:06;;;;;;;1999.90;999.90;;;18.80;99.90;;;;;;5049234;28;20485;-67
2022/07/13 02:59:33;;;;;;;1999.90;999.90;;;18.90;99.90;;;;;;5050721;28;20860;-66
2022/07/13 03:01:59;;;;;;;1999.90;999.90;;;18.80;99.90;;;;;;5049137;28;20472;-66
2022/07/13 03:04:26;;;;;;;1999.90;999.90;;;18.80;99.90;;;;;;5044368;28;20880;-66
2022/07/13 03:06:54;;;;;;;1999.90;999.90;;;19.10;99.90;;;;;;5049669;28;20494;-66
2022/07/13 03:09:21;;;;;;;1999.90;999.90;;;19.00;99.90;;;;;;5044975;28;20458;-66
2022/07/13 03:11:47;;;;;;;1999.90;999.90;;;18.90;99.90;;;;;;5046750;28;21201;-66
2022/07/13 03:14:14;;;;;;;1999.90;999.90;;;18.90;99.90;;;;;;5049458;28;20555;-66
2022/07/13 03:16:41;;;;;;;1999.90;999.90;;;18.90;99.90;;;;;;5047272;28;20536;-66
2022/07/13 03:19:08;;;;;;;1999.90;999.90;;;18.90;99.90;;;;;;5045295;28;20466;-66
2022/07/13 03:21:34;;;;;;;1999.90;999.90;;;18.80;99.90;;;;;;5042751;28;20459;-66
2022/07/13 03:24:02;;;;;;;1999.90;999.90;;;18.70;99.90;;;;;;5049364;28;20880;-66
2022/07/13 03:26:29;;;;;;;1999.90;999.90;;;18.60;99.90;;;;;;5048398;28;20536;-67
2022/07/13 03:28:56;;;;;;;1999.90;999.90;;;18.70;99.90;;;;;;5046618;28;20533;-66
2022/07/13 03:31:23;;;;;;;1999.90;999.90;;;18.70;99.90;;;;;;5043237;28;20462;-66
2022/07/13 03:33:49;;;;;;;1999.90;999.90;;;18.70;99.90;;;;;;5042408;28;20494;-66
2022/07/13 03:36:16;;;;;;;1999.90;999.90;;;18.80;99.90;;;;;;5047996;28;20492;-66
2022/07/13 03:38:43;;;;;;;1999.90;999.90;;;18.80;99.90;;;;;;5048369;28;20739;-66
2022/07/13 03:41:11;;;;;;;1999.90;999.90;;;18.80;99.90;;;;;;5044956;28;20482;-67
2022/07/13 03:43:37;;;;;;;1999.90;999.90;;;18.90;99.90;;;;;;5043517;28;20524;-66
2022/07/13 03:46:04;;;;;;;1999.90;999.90;;;18.80;99.90;;;;;;5044239;28;20524;-66
2022/07/13 03:48:30;;;;;;;1999.90;999.90;;;18.80;99.90;;;;;;5047584;28;20458;-66
2022/07/13 03:50:57;;;;;;;1999.90;999.90;;;19.00;99.90;;;;;;5045084;28;21321;-66
2022/07/13 03:53:24;;;;;;;1999.90;999.90;;;19.00;99.90;;;;;;5043177;28;20492;-67
2022/07/13 03:55:51;;;;;;;1999.90;999.90;;;18.90;99.90;;;;;;5046155;28;20478;-66
2022/07/13 03:58:18;;;;;;;1999.90;999.90;;;18.90;99.90;;;;;;5043373;28;20466;-67
2022/07/13 04:00:46;;;;;;;1999.90;999.90;;;18.90;99.90;;;;;;5050371;28;20466;-66
2022/07/13 04:03:13;;;;;;;1999.90;999.90;;;19.00;99.90;;;;;;5046210;28;20554;-67
2022/07/13 04:05:39;;;;;;;1999.90;999.90;;;18.90;99.90;;;;;;5041751;28;20495;-66
2022/07/13 04:08:06;;;;;;;1999.90;999.90;;;18.90;99.90;;;;;;5047810;28;20983;-67
2022/07/13 04:10:32;;;;;;;1999.90;999.90;;;18.90;99.90;;;;;;5042321;28;20509;-66
2022/07/13 04:12:59;;;;;;;1999.90;999.90;;;19.00;99.90;;;;;;5049184;28;20532;-66
2022/07/13 04:15:27;;;;;;;1999.90;999.90;;;19.00;99.90;;;;;;5048598;28;20948;-66
2022/07/13 04:17:54;;;;;;;1999.90;999.90;;;19.10;99.90;;;;;;5042332;28;20905;-66
2022/07/13 04:20:20;;;;;;;1999.90;999.90;;;19.10;99.90;;;;;;5043471;28;20463;-66
2022/07/13 04:22:47;;;;;;;1999.90;999.90;;;19.10;99.90;;;;;;5043664;28;20819;-66
2022/07/13 04:25:14;;;;;;;1999.90;999.90;;;19.20;99.90;;;;;;5050277;28;20463;-66
2022/07/13 04:27:40;;;;;;;1999.90;999.90;;;19.30;99.90;;;;;;5047379;28;20496;-66
2022/07/13 04:30:08;;;;;;;1999.90;999.90;;;19.40;99.90;;;;;;5046704;28;20459;-67
2022/07/13 04:32:36;;;;;;;1999.90;999.90;;;19.30;99.90;;;;;;5040209;28;20455;-66
2022/07/13 04:35:02;;;;;;;1999.90;999.90;;;19.40;99.90;;;;;;5041061;28;20521;-65
2022/07/13 04:37:29;;;;;;;1999.90;999.90;;;19.50;99.90;;;;;;5049878;28;20524;-68
2022/07/13 04:39:56;;;;;;;1999.90;999.90;;;19.70;99.90;;;;;;5045988;28;21005;-68
2022/07/13 04:42:22;;;;;;;1999.90;999.90;;;19.70;99.90;;;;;;5041109;28;20458;-68
2022/07/13 04:44:49;;;;;;;1999.90;999.90;;;19.90;99.90;;;;;;5046217;28;20454;-68
2022/07/13 04:47:15;;;;;;;1999.90;999.90;;;19.90;99.90;;;;;;5040120;28;20479;-68
2022/07/13 04:49:43;;;;;;;1999.90;999.90;;;19.90;99.90;;;;;;5047354;28;20467;-68
2022/07/13 04:52:10;;;;;;;1999.90;999.90;;;19.90;99.90;;;;;;5040694;28;20528;-69
2022/07/13 04:54:37;;;;;;;1999.90;999.90;;;20.00;99.90;;;;;;5038896;28;20497;-68
2022/07/13 04:57:03;;;;;;;1999.90;999.90;;;20.20;99.90;;;;;;5041172;28;20482;-68
2022/07/13 04:59:30;;;;;;;1999.90;999.90;;;20.20;99.90;;;;;;5050422;28;20954;-68
2022/07/13 05:01:57;;;;;;;1999.90;999.90;;;20.30;99.90;;;;;;5052511;28;20450;-68
2022/07/13 05:04:24;;;;;;;1999.90;999.90;;;20.40;99.90;;;;;;5040381;28;20458;-68
2022/07/13 05:06:52;;;;;;;1999.90;999.90;;;20.60;99.90;;;;;;5039285;28;20497;-68
2022/07/13 05:09:18;;;;;;;1999.90;999.90;;;20.80;99.90;;;;;;5041255;28;20524;-69
2022/07/13 05:11:45;;;;;;;1999.90;999.90;;;21.00;99.90;;;;;;5043615;28;20520;-68
2022/07/13 05:14:11;;;;;;;1999.90;999.90;;;21.20;99.90;;;;;;5048275;28;20532;-68
2022/07/13 05:16:38;;;;;;;1999.90;999.90;;;21.40;99.90;;;;;;5041642;28;20944;-68
2022/07/13 05:19:06;;;;;;;1999.90;999.90;;;21.70;99.90;;;;;;5054258;22;20560;-72
2022/07/13 05:21:32;;;;;;;1999.90;999.90;;;21.90;99.90;;;;;;5032121;28;20471;-72
2022/07/13 05:24:00;;;;;;;1999.90;999.90;;;22.10;99.90;;;;;;5030345;28;20471;-72
2022/07/13 05:26:27;;;;;;;1999.90;999.90;;;22.20;99.90;;;;;;5030219;28;20537;-69
2022/07/13 05:28:53;;;;;;;1999.90;999.90;;;22.40;99.90;;;;;;5023851;28;20487;-72
2022/07/13 05:31:20;;;;;;;1999.90;999.90;;;22.50;99.90;;;;;;5030350;28;20459;-71
2022/07/13 05:33:46;;;;;;;1999.90;999.90;;;22.50;99.90;;;;;;5029887;28;20467;-73
2022/07/13 05:36:13;;;;;;;1999.90;999.90;;;22.60;99.90;;;;;;5029098;28;20942;-71
2022/07/13 05:38:40;;;;;;;1999.90;999.90;;;22.70;99.90;;;;;;5032262;28;20553;-72
2022/07/13 05:41:08;;;;;;;1999.90;999.90;;;22.90;99.90;;;;;;5030456;28;21033;-72
2022/07/13 05:43:35;;;;;;;1999.90;999.90;;;23.00;99.90;;;;;;5029099;28;20547;-74
2022/07/13 05:46:01;;;;;;;1999.90;999.90;;;23.20;99.90;;;;;;5030098;28;20509;-74
2022/07/13 05:48:28;;;;;;;1999.90;999.90;;;23.30;99.90;;;;;;5031509;28;20455;-74
2022/07/13 05:50:54;;;;;;;1999.90;999.90;;;23.40;99.90;;;;;;5027487;28;20532;-71
2022/07/13 05:53:21;;;;;;;1999.90;999.90;;;23.30;99.90;;;;;;5028948;28;20463;-71
2022/07/13 05:55:48;;;;;;;1999.90;999.90;;;23.30;99.90;;;;;;5028247;28;21007;-74
2022/07/13 05:58:15;;;;;;;1999.90;999.90;;;23.50;99.90;;;;;;5027778;28;20873;-74
2022/07/13 06:00:42;;;;;;;1999.90;999.90;;;23.60;99.90;;;;;;5028518;28;20533;-74
2022/07/13 06:03:09;;;;;;;1999.90;999.90;;;23.70;99.90;;;;;;5029872;28;20521;-73
2022/07/13 06:05:35;;;;;;;1999.90;999.90;;;23.70;99.90;;;;;;5028010;28;20459;-74
2022/07/13 06:08:02;;;;;;;1999.90;999.90;;;23.80;99.90;;;;;;5031797;28;20946;-73
2022/07/13 06:10:30;;;;;;;1999.90;999.90;;;23.90;99.90;;;;;;5030153;28;20479;-71
2022/07/13 06:12:56;;;;;;;1999.90;999.90;;;24.10;99.90;;;;;;5032297;28;20466;-74
2022/07/13 06:15:24;;;;;;;1999.90;999.90;;;24.30;99.50;;;;;;5031832;28;20479;-74
2022/07/13 06:17:51;;;;;;;1999.90;999.90;;;24.40;99.50;;;;;;5028396;28;21081;-73
2022/07/13 06:20:17;;;;;;;1999.90;999.90;;;24.50;99.40;;;;;;5028503;28;20490;-74
2022/07/13 06:23:09;;;;;;;1999.90;999.90;;;24.40;99.60;;;;;;5026661;28;20517;-74
2022/07/13 06:25:30;;;;;;;1999.90;999.90;;;24.40;99.60;;;;;;5028473;28;21018;-74
2022/07/13 06:27:57;;;;;;;1999.90;999.90;;;24.50;99.50;;;;;;5031178;28;20497;-74
2022/07/13 06:30:25;;;;;;;1999.90;999.90;;;24.50;99.30;;;;;;5023434;28;20480;-74
2022/07/13 06:32:51;;;;;;;1999.90;999.90;;;24.70;99.10;;;;;;5026769;28;20955;-74
2022/07/13 06:35:18;;;;;;;1999.90;999.90;;;24.80;98.80;;;;;;5027752;28;20482;-75
2022/07/13 06:37:45;;;;;;;1999.90;999.90;;;24.90;98.60;;;;;;5023531;28;20463;-74
2022/07/13 06:40:12;;;;;;;1999.90;999.90;;;24.80;98.30;;;;;;5028379;28;20486;-74
2022/07/13 06:42:39;;;;;;;1999.90;999.90;;;24.80;98.30;;;;;;5023383;28;20560;-74
2022/07/13 06:45:06;;;;;;;1999.90;999.90;;;24.80;98.90;;;;;;5031806;28;20995;-74
2022/07/13 06:47:34;;;;;;;1999.90;999.90;;;24.90;98.10;;;;;;5030456;28;20925;-73
2022/07/13 06:50:01;;;;;;;1999.90;999.90;;;24.90;97.50;;;;;;5033131;28;20540;-75
2022/07/13 06:52:27;;;;;;;1999.90;999.90;;;25.10;97.50;;;;;;5033912;28;20517;-74
2022/07/13 06:54:54;;;;;;;1999.90;999.90;;;25.10;97.70;;;;;;5034321;28;20479;-74
2022/07/13 06:57:21;;;;;;;1999.90;999.90;;;25.10;98.10;;;;;;5035148;28;20447;-72
2022/07/13 06:59:47;;;;;;;1999.90;999.90;;;25.20;97.90;;;;;;5035559;28;20517;-72
2022/07/13 07:02:14;;;;;;;1999.90;999.90;;;25.30;97.70;;;;;;5035052;28;20447;-73
2022/07/13 07:04:42;;;;;;;1999.90;999.90;;;25.70;97.10;;;;;;5033372;28;20947;-72
2022/07/13 07:07:09;;;;;;;1999.90;999.90;;;26.10;96.50;;;;;;5034387;28;20451;-72
2022/07/13 07:09:36;;;;;;;1999.90;999.90;;;26.50;95.70;;;;;;5034386;28;20463;-72
2022/07/13 07:12:03;;;;;;;1999.90;999.90;;;26.50;95.10;;;;;;5034290;28;20442;-72
2022/07/13 07:14:32;;;;;;;1999.90;999.90;;;26.70;94.40;;;;;;5034069;28;21017;-72
2022/07/13 07:16:59;;;;;;;1999.90;999.90;;;26.90;93.90;;;;;;5032356;28;20459;-72
2022/07/13 07:19:26;;;;;;;1999.90;999.90;;;27.10;93.10;;;;;;5034203;28;20503;-72
2022/07/13 07:21:54;;;;;;;1999.90;999.90;;;27.30;93.00;;;;;;5034777;28;20442;-72
2022/07/13 07:24:21;;;;;;;1999.90;999.90;;;27.40;93.10;;;;;;5034214;28;20853;-70
2022/07/13 07:26:48;;;;;;;1999.90;999.90;;;27.50;91.60;;;;;;5032583;28;20494;-72
2022/07/13 07:29:14;;;;;;;1999.90;999.90;;;27.70;91.00;;;;;;5033959;28;20470;-72
2022/07/13 07:31:41;;;;;;;1999.90;999.90;;;27.60;90.80;;;;;;5034265;28;20875;-72
2022/07/13 07:34:08;;;;;;;1999.90;999.90;;;27.60;90.40;;;;;;5034021;28;20447;-72
2022/07/13 07:36:35;;;;;;;1999.90;999.90;;;27.70;89.30;;;;;;5034157;28;20545;-72
2022/07/13 07:39:03;;;;;;;1999.90;999.90;;;27.80;87.80;;;;;;5033260;28;20483;-72
2022/07/13 07:41:29;;;;;;;1999.90;999.90;;;27.90;88.90;;;;;;5033919;28;20447;-72
2022/07/13 07:43:56;;;;;;;1999.90;999.90;;;28.00;87.80;;;;;;5033656;28;20574;-71
2022/07/13 07:46:23;;;;;;;1999.90;999.90;;;27.60;83.50;;;;;;5033901;28;20881;-72
2022/07/13 07:48:49;;;;;;;1999.90;999.90;;;27.70;82.00;;;;;;5033630;28;20451;-71
2022/07/13 07:51:16;;;;;;;1999.90;999.90;;;27.90;82.00;;;;;;5032563;28;20844;-72
2022/07/13 07:53:43;;;;;;;1999.90;999.90;;;28.00;82.10;;;;;;5033869;28;20447;-72
2022/07/13 07:56:11;;;;;;;1999.90;999.90;;;28.10;81.00;;;;;;5032822;28;20536;-72
2022/07/13 07:58:38;;;;;;;1999.90;999.90;;;28.20;80.80;;;;;;5033585;28;20509;-72
2022/07/13 08:01:05;;;;;;;1999.90;999.90;;;28.00;81.40;;;;;;5033680;28;20455;-72
2022/07/13 08:03:32;;;;;;;1999.90;999.90;;;28.10;78.30;;;;;;5030707;28;20892;-72
2022/07/13 08:05:59;;;;;;;1999.90;999.90;;;28.20;77.30;;;;;;5033678;28;20439;-72
2022/07/13 08:08:26;;;;;;;1999.90;999.90;;;28.20;76.90;;;;;;5029959;28;20478;-72
2022/07/13 08:10:54;;;;;;;1999.90;999.90;;;28.40;77.90;;;;;;5026965;28;20505;-72
2022/07/13 08:13:22;;;;;;;1999.90;999.90;;;28.50;77.80;;;;;;5030951;28;20554;-72
2022/07/13 08:15:49;;;;;;;1999.90;999.90;;;28.70;76.30;;;;;;5029126;28;20478;-72
2022/07/13 08:18:17;;;;;;;1999.90;999.90;;;28.60;75.90;;;;;;5029660;28;20459;-72
2022/07/13 08:20:44;;;;;;;1999.90;999.90;;;28.80;75.00;;;;;;5025873;28;20548;-71
2022/07/13 08:25:51;;;;;;;1999.90;999.90;;;28.70;76.70;;;;;;5031453;28;20459;-71
2022/07/13 08:28:18;;;;;;;1999.90;999.90;;;28.80;76.30;;;;;;5030585;28;20479;-73
2022/07/13 08:30:47;;;;;;;1999.90;999.90;;;28.90;75.30;;;;;;5032576;28;20491;-74
2022/07/13 08:33:13;;;;;;;1999.90;999.90;;;29.00;75.00;;;;;;5030591;28;21052;-74
2022/07/13 08:41:08;;;;;;;1999.90;999.90;;;28.80;73.40;;;;;;5028783;28;20470;-72
2022/07/13 08:43:34;;;;;;;1999.90;999.90;;;28.70;75.10;;;;;;5031408;28;20825;-72
2022/07/13 08:46:08;;;;;;;1999.90;999.90;;;28.70;76.30;;;;;;5030588;28;20553;-73
2022/07/13 08:48:38;;;;;;;1999.90;999.90;;;28.40;75.10;;;;;;5031105;28;20822;-72
2022/07/13 08:51:05;;;;;;;1999.90;999.90;;;28.50;76.70;;;;;;5031879;28;20951;-72
2022/07/13 08:53:33;;;;;;;1999.90;999.90;;;28.40;76.80;;;;;;5029597;28;21041;-73
2022/07/13 08:56:00;;;;;;;1999.90;999.90;;;28.50;75.90;;;;;;5030871;28;20483;-72
2022/07/13 08:58:27;;;;;;;1999.90;999.90;;;28.40;75.20;;;;;;5032459;28;20497;-72
2022/07/13 09:00:53;;;;;;;1999.90;999.90;;;28.50;75.30;;;;;;5025266;28;21061;-70
2022/07/13 09:03:21;;;;;;;1999.90;999.90;;;28.70;75.10;;;;;;5029854;28;20509;-72
2022/07/13 09:05:48;;;;;;;1999.90;999.90;;;28.80;74.80;;;;;;5034717;28;20439;-72
2022/07/13 09:08:14;;;;;;;1999.90;999.90;;;29.10;74.70;;;;;;5032138;28;20463;-70
2022/07/13 09:10:56;;;;;;;1999.90;999.90;;;29.10;74.00;;;;;;5030293;28;20997;-72
2022/07/13 09:13:34;;;;;;;1999.90;999.90;;;29.40;73.10;;;;;;5023777;28;20459;-75
2022/07/13 09:16:17;;;;;;;1999.90;999.90;;;29.30;72.80;;;;;;5029607;28;20570;-72
2022/07/13 09:18:46;;;;;;;1999.90;999.90;;;29.70;72.00;;;;;;5028466;28;20529;-73
2022/07/13 09:21:13;;;;;;;1999.90;999.90;;;29.90;71.30;;;;;;5026398;28;20452;-74
2022/07/13 09:23:40;;;;;;;1999.90;999.90;;;30.10;72.70;;;;;;5026480;28;20902;-73
2022/07/13 09:26:07;;;;;;;1999.90;999.90;;;30.40;70.90;;;;;;5029553;28;20467;-73
2022/07/13 09:28:42;;;;;;;1999.90;999.90;;;30.50;70.20;;;;;;5029072;28;20550;-74
2022/07/13 09:31:09;;;;;;;1999.90;999.90;;;30.70;69.10;;;;;;5029258;28;20454;-74
2022/07/13 09:33:36;;;;;;;1999.90;999.90;;;30.50;68.60;;;;;;5029052;28;20513;-72
2022/07/13 09:36:11;;;;;;;1999.90;999.90;;;30.50;70.60;;;;;;5029851;28;20479;-74
2022/07/13 09:38:39;;;;;;;1999.90;999.90;;;30.50;70.50;;;;;;5028558;28;20880;-74
2022/07/13 09:41:20;;;;;;;1999.90;999.90;;;30.40;69.90;;;;;;5026041;28;20462;-74
2022/07/13 09:46:54;;;;;;;1999.90;999.90;;;30.20;70.90;;;;;;5020798;28;20459;-74
2022/07/13 09:49:30;;;;;;;1999.90;999.90;;;30.10;71.50;;;;;;5027728;28;20917;-74
2022/07/13 09:51:59;;;;;;;1999.90;999.90;;;30.00;72.00;;;;;;5027570;28;20994;-74
2022/07/13 09:54:28;;;;;;;1999.90;999.90;;;30.10;72.00;;;;;;5029525;28;20491;-74
2022/07/13 09:56:58;;;;;;;1999.90;999.90;;;30.10;70.90;;;;;;5028935;28;20476;-73
2022/07/13 09:59:25;;;;;;;1999.90;999.90;;;30.20;71.10;;;;;;5026993;28;20509;-74
2022/07/13 10:01:52;;;;;;;1999.90;999.90;;;30.20;69.70;;;;;;5027277;28;20467;-75
2022/07/13 10:04:19;;;;;;;1999.90;999.90;;;30.10;69.30;;;;;;5028874;28;20517;-74
2022/07/13 10:06:46;;;;;;;1999.90;999.90;;;30.40;68.80;;;;;;5028538;28;20517;-74
2022/07/13 10:09:15;;;;;;;1999.90;999.90;;;30.40;69.50;;;;;;5029620;28;20827;-74
2022/07/13 10:11:42;;;;;;;1999.90;999.90;;;30.70;69.60;;;;;;5028078;28;20549;-73
2022/07/13 10:14:09;;;;;;;1999.90;999.90;;;30.80;68.40;;;;;;5026395;28;20467;-74
2022/07/13 10:16:36;;;;;;;1999.90;999.90;;;30.70;67.00;;;;;;5027761;28;21029;-74
2022/07/13 10:19:07;;;;;;;1999.90;999.90;;;30.70;68.40;;;;;;5029789;28;21018;-74
2022/07/13 10:21:44;;;;;;;1999.90;999.90;;;31.00;67.90;;;;;;5032994;28;20467;-74
2022/07/13 10:24:18;;;;;;;1999.90;999.90;;;31.20;67.80;;;;;;5030527;28;20469;-73
2022/07/13 10:26:47;;;;;;;1999.90;999.90;;;31.00;66.70;;;;;;5031272;28;21165;-74
2022/07/13 10:29:15;;;;;;;1999.90;999.90;;;31.00;66.70;;;;;;5033209;28;20483;-74
2022/07/13 10:31:43;;;;;;;1999.90;999.90;;;31.10;65.80;;;;;;5032088;28;21013;-74
2022/07/13 10:34:10;;;;;;;1999.90;999.90;;;31.30;66.20;;;;;;5030449;28;20467;-74
2022/07/13 10:36:55;;;;;;;1999.90;999.90;;;31.10;64.20;;;;;;5029521;28;20536;-72
2022/07/13 10:39:25;;;;;;;1999.90;999.90;;;30.90;64.50;;;;;;5029066;28;20919;-73
2022/07/13 10:42:00;;;;;;;1999.90;999.90;;;31.00;65.00;;;;;;5032177;28;20470;-74
2022/07/13 10:44:35;;;;;;;1999.90;999.90;;;31.00;66.20;;;;;;5030240;28;20546;-74
2022/07/13 10:47:03;;;;;;;1999.90;999.90;;;30.70;64.10;;;;;;5033468;28;20458;-73
2022/07/13 10:49:39;;;;;;;1999.90;999.90;;;30.70;64.20;;;;;;5031343;28;20864;-74
2022/07/13 10:52:52;;;;;;;1999.90;999.90;;;30.60;63.70;;;;;;5030507;28;20918;-74
2022/07/13 10:55:47;;;;;;;1999.90;999.90;;;30.40;63.80;;;;;;5031270;28;20873;-74
2022/07/13 10:58:42;;;;;;;1999.90;999.90;;;30.10;65.60;;;;;;5029792;28;20459;-74
2022/07/13 11:01:36;;;;;;;1999.90;999.90;;;30.20;64.10;;;;;;5032300;28;20466;-74
2022/07/13 11:04:03;;;;;;;1999.90;999.90;;;30.30;64.10;;;;;;5032309;28;20454;-73
2022/07/13 11:06:29;;;;;;;1999.90;999.90;;;30.50;65.30;;;;;;5030866;28;20451;-73
2022/07/13 11:09:13;;;;;;;1999.90;999.90;;;30.20;66.10;;;;;;5031687;28;20482;-74
2022/07/13 11:11:53;;;;;;;1999.90;999.90;;;30.20;66.90;;;;;;5029100;28;20516;-71
2022/07/13 11:14:59;;;;;;;1999.90;999.90;;;29.90;64.60;;;;;;5030333;28;20467;-72
2022/07/13 11:17:27;;;;;;;1999.90;999.90;;;29.90;65.70;;;;;;5031028;28;20489;-72
2022/07/13 11:20:03;;;;;;;1999.90;999.90;;;30.00;65.40;;;;;;5045424;22;20534;-69
2022/07/13 11:25:33;;;;;;;1999.90;999.90;;;30.00;66.50;;;;;;5023290;28;20457;-66
2022/07/13 11:28:06;;;;;;;1999.90;999.90;;;30.30;67.00;;;;;;5029126;28;20881;-66
2022/07/13 11:30:36;;;;;;;1999.90;999.90;;;30.40;66.20;;;;;;5027566;28;20487;-66
2022/07/13 11:33:02;;;;;;;1999.90;999.90;;;30.30;66.00;;;;;;5026359;28;20511;-66
2022/07/13 11:35:29;;;;;;;1999.90;999.90;;;29.90;68.20;;;;;;5031408;28;20497;-67
2022/07/13 11:37:57;;;;;;;1999.90;999.90;;;29.80;68.10;;;;;;5032009;28;20572;-66
2022/07/13 11:40:29;;;;;;;1999.90;999.90;;;30.00;69.30;;;;;;5033749;28;20467;-66
2022/07/13 11:42:56;;;;;;;1999.90;999.90;;;29.90;68.10;;;;;;5033978;28;20463;-66
2022/07/13 11:45:30;;;;;;;1999.90;999.90;;;29.80;68.00;;;;;;5033830;28;20501;-66
2022/07/13 11:47:58;;;;;;;1999.90;999.90;;;30.00;68.70;;;;;;5034339;28;20455;-69
2022/07/13 11:50:38;;;;;;;1999.90;999.90;;;29.80;69.70;;;;;;5032385;28;20483;-66
2022/07/13 11:53:05;;;;;;;1999.90;999.90;;;30.10;69.00;;;;;;5033507;28;20455;-66
2022/07/13 11:55:31;;;;;;;1999.90;999.90;;;30.00;69.20;;;;;;5033589;28;20447;-67
2022/07/13 11:58:00;;;;;;;1999.90;999.90;;;30.20;68.70;;;;;;5033820;28;20516;-65
2022/07/13 12:00:30;;;;;;;1999.90;999.90;;;30.50;69.80;;;;;;5027938;28;20486;-66
2022/07/13 12:02:56;;;;;;;1999.90;999.90;;;30.60;68.00;;;;;;5029321;28;20463;-66
2022/07/13 12:05:24;;;;;;;1999.90;999.90;;;30.70;68.50;;;;;;5031216;28;20590;-66
2022/07/13 12:08:02;;;;;;;1999.90;999.90;;;30.70;66.50;;;;;;5028810;28;20493;-66
2022/07/13 12:10:29;;;;;;;1999.90;999.90;;;30.50;66.40;;;;;;5029424;28;20986;-66
2022/07/13 12:12:56;;;;;;;1999.90;999.90;;;30.30;67.30;;;;;;5031630;28;20459;-66
2022/07/13 12:15:23;;;;;;;1999.90;999.90;;;30.40;67.90;;;;;;5028093;28;20459;-66
2022/07/13 12:17:51;;;;;;;1999.90;999.90;;;30.50;68.50;;;;;;5029356;28;20479;-66